createdAt,value
2023-02-25T17:00:18.544Z,99613.47
2023-02-25T17:19:11.179Z,99659.53
2023-02-25T17:21:46.568Z,99656.03
2023-02-25T17:24:19.771Z,99664.75
2023-02-25T19:27:32.947Z,99840.00
2023-02-25T19:30:04.260Z,99843.47
2023-02-25T19:56:19.406Z,99879.03
2023-02-25T19:58:59.881Z,99887.72
2023-02-25T20:01:29.278Z,99886.03
2023-02-25T20:04:01.235Z,99898.13
2023-02-25T20:06:33.222Z,99887.69
2023-02-25T20:09:04.350Z,99899.84
2023-02-25T20:12:19.648Z,99905.09
2023-02-25T20:14:59.546Z,99905.00
2023-02-25T20:22:12.027Z,99916.34
2023-02-25T20:28:15.811Z,99918.06
2023-02-25T20:30:48.516Z,99925.94
2023-02-25T20:33:38.400Z,99928.47
2023-02-25T20:37:09.463Z,99929.41
2023-02-25T20:39:54.511Z,99928.53
2023-02-25T20:42:30.175Z,99936.34
2023-02-25T20:45:07.678Z,99939.00
2023-02-25T20:47:52.325Z,99947.72
2023-02-25T20:50:32.999Z,99948.53
2023-02-25T20:53:08.729Z,99948.53
2023-02-25T20:55:44.691Z,99947.59
2023-02-25T20:58:17.873Z,99956.34
2023-02-25T21:00:52.164Z,99956.25
2023-02-25T21:03:25.075Z,99969.22
2023-02-25T21:05:58.043Z,99974.38
2023-02-25T21:08:31.531Z,99974.44
2023-02-25T21:11:08.833Z,99978.75
2023-02-25T21:13:40.698Z,99990.91
2023-02-25T21:16:39.654Z,99976.91
2023-02-25T21:19:23.367Z,99882.72
2023-02-25T21:21:56.874Z,99983.88
2023-02-25T21:24:34.658Z,99989.03
2023-02-25T21:27:10.120Z,99991.50
2023-02-25T21:29:52.191Z,99996.69
2023-02-25T21:33:10.482Z,99683.72
2023-02-25T21:35:44.767Z,100004.63
2023-02-25T21:38:18.156Z,100008.91
2023-02-25T21:40:50.371Z,100004.53
2023-02-25T21:43:30.470Z,100011.47
2023-02-25T21:46:03.462Z,100010.63
2023-02-25T21:48:35.064Z,100011.50
2023-02-25T21:51:05.329Z,100007.22
2023-02-25T21:53:35.075Z,100013.22
2023-02-25T21:56:36.417Z,100008.09
2023-02-25T21:59:56.586Z,100014.19
2023-02-25T22:02:31.481Z,100021.16
2023-02-25T22:05:03.405Z,100020.28
2023-02-25T22:07:32.382Z,100019.44
2023-02-25T22:10:02.031Z,100020.28
2023-02-25T22:12:31.070Z,100028.97
2023-02-25T22:15:01.980Z,100027.25
2023-02-25T22:17:31.182Z,99953.09
2023-02-25T22:20:16.181Z,100037.59
2023-02-25T22:22:47.575Z,100041.13
2023-02-25T22:29:23.286Z,100036.72
2023-02-25T22:32:05.196Z,100044.53
2023-02-25T22:34:53.713Z,100041.91
2023-02-25T22:37:31.534Z,100042.78
2023-02-25T22:40:05.269Z,100049.75
2023-02-25T22:43:00.203Z,100055.81
2023-02-25T22:45:33.259Z,100058.44
2023-02-25T22:48:16.723Z,100054.94
2023-02-25T22:51:10.143Z,100060.13
